Time;durP1;ratioP1;P1;durP2;ratioP2;P2;SDS_P1;SDS_P2;PMS_P1;PMS_P2;Temp;Humidity;BMP_temperature;BMP_pressure;BME280_temperature;BME280_humidity;BME280_pressure;Samples;Min_cycle;Max_cycle;Signal;HPM_P1;HPM_P2
2023/10/10 00:00:38;;;;;;;26.90;15.80;;;10.50;99.90;;;;;;5220682;28;20430;-50
2023/10/10 00:03:08;;;;;;;20.83;14.20;;;10.50;99.90;;;;;;5205792;28;20579;-51
2023/10/10 00:05:40;;;;;;;25.67;15.80;;;10.50;99.90;;;;;;5222664;28;20438;-51
2023/10/10 00:08:11;;;;;;;26.53;15.93;;;10.40;99.90;;;;;;5222865;28;20210;-50
2023/10/10 00:10:49;;;;;;;24.20;15.50;;;10.40;99.90;;;;;;5220835;28;20437;-50
2023/10/10 00:13:20;;;;;;;25.47;14.87;;;10.40;99.90;;;;;;5212212;28;20508;-50
2023/10/10 00:15:51;;;;;;;18.83;12.50;;;10.40;99.90;;;;;;5223438;28;20520;-50
2023/10/10 00:18:24;;;;;;;27.00;14.30;;;10.40;99.90;;;;;;5218769;28;20442;-50
2023/10/10 00:21:08;;;;;;;27.80;16.17;;;10.40;99.90;;;;;;5221953;28;20441;-50
2023/10/10 00:23:42;;;;;;;23.10;14.27;;;10.40;99.90;;;;;;5226533;28;20453;-54
2023/10/10 00:26:21;;;;;;;20.77;12.57;;;10.40;99.90;;;;;;5227467;28;20438;-50
2023/10/10 00:28:55;;;;;;;33.90;16.20;;;10.40;99.90;;;;;;5229774;28;20432;-51
2023/10/10 00:31:28;;;;;;;21.47;14.73;;;10.40;99.90;;;;;;5225401;28;20437;-49
2023/10/10 00:33:59;;;;;;;17.90;13.50;;;10.50;99.90;;;;;;5228643;28;20464;-50
2023/10/10 00:41:51;;;;;;;26.23;12.33;;;10.50;99.90;;;;;;5236966;28;20206;-50
2023/10/10 00:44:25;;;;;;;16.47;12.53;;;10.40;99.90;;;;;;5226217;28;20903;-50
2023/10/10 00:46:58;;;;;;;17.30;12.30;;;10.40;99.90;;;;;;5229297;28;20467;-51
2023/10/10 00:49:31;;;;;;;17.17;12.00;;;10.50;99.90;;;;;;5211897;28;20455;-50
2023/10/10 00:52:06;;;;;;;24.40;14.20;;;10.50;99.90;;;;;;5223230;28;20905;-50
2023/10/10 00:54:58;;;;;;;25.50;12.97;;;10.50;99.90;;;;;;5226738;28;20460;-50
2023/10/10 00:57:35;;;;;;;18.93;11.30;;;10.50;99.90;;;;;;5225504;28;20913;-49
2023/10/10 01:00:09;;;;;;;15.93;12.20;;;10.50;99.90;;;;;;5227492;28;20441;-50
2023/10/10 01:02:39;;;;;;;22.33;12.20;;;10.50;99.90;;;;;;5228598;28;20453;-49
2023/10/10 01:05:14;;;;;;;17.10;12.30;;;10.50;99.90;;;;;;5223218;28;20453;-49
2023/10/10 01:07:47;;;;;;;25.27;14.20;;;10.50;99.90;;;;;;5226973;28;20260;-50
2023/10/10 01:10:18;;;;;;;19.83;13.27;;;10.40;99.90;;;;;;5224702;28;20536;-51
2023/10/10 01:12:49;;;;;;;30.33;15.13;;;10.40;99.90;;;;;;5219152;28;20442;-50
2023/10/10 01:15:34;;;;;;;30.30;14.90;;;10.40;99.90;;;;;;5217088;28;20941;-50
2023/10/10 01:18:13;;;;;;;20.17;12.10;;;10.40;99.90;;;;;;5222561;28;20663;-50
2023/10/10 01:20:46;;;;;;;18.33;12.20;;;10.50;99.90;;;;;;5223217;28;20807;-52
2023/10/10 01:23:26;;;;;;;16.23;11.40;;;10.50;99.90;;;;;;5227669;28;20972;-51
2023/10/10 01:26:05;;;;;;;15.83;11.50;;;10.50;99.90;;;;;;5226780;28;20429;-50
2023/10/10 01:28:36;;;;;;;19.30;12.87;;;10.50;99.90;;;;;;5215247;28;20521;-50
2023/10/10 01:31:10;;;;;;;18.57;12.33;;;10.50;99.90;;;;;;5222775;28;20441;-49
2023/10/10 01:33:47;;;;;;;16.73;11.40;;;10.50;99.90;;;;;;5221682;28;20466;-50
2023/10/10 01:36:22;;;;;;;21.13;12.93;;;10.50;99.90;;;;;;5224669;28;20433;-50
2023/10/10 01:38:56;;;;;;;16.00;11.87;;;10.60;99.90;;;;;;5224263;28;20817;-50
2023/10/10 01:41:38;;;;;;;15.67;10.47;;;10.60;99.90;;;;;;5224104;28;20459;-50
2023/10/10 01:44:18;;;;;;;17.70;9.97;;;10.60;99.90;;;;;;5226136;28;20429;-51
2023/10/10 01:46:52;;;;;;;10.90;9.00;;;10.60;99.90;;;;;;5220888;28;20453;-51
2023/10/10 01:49:28;;;;;;;14.83;10.47;;;10.60;99.90;;;;;;5221709;28;20433;-52
2023/10/10 01:51:59;;;;;;;17.43;10.70;;;10.60;99.90;;;;;;5224165;28;20461;-51
2023/10/10 01:54:40;;;;;;;16.43;11.33;;;10.60;99.90;;;;;;5227245;28;20489;-50
2023/10/10 01:57:21;;;;;;;27.37;17.47;;;10.70;99.90;;;;;;5221597;28;20709;-53
2023/10/10 01:59:52;;;;;;;34.50;19.17;;;10.70;99.90;;;;;;5218235;28;20949;-50
2023/10/10 02:02:24;;;;;;;21.73;15.90;;;10.70;99.90;;;;;;5226726;28;20480;-51
2023/10/10 02:04:59;;;;;;;24.57;16.03;;;10.70;99.90;;;;;;5220101;28;20207;-50
2023/10/10 02:07:31;;;;;;;27.60;14.63;;;10.70;99.90;;;;;;5224923;28;20463;-50
2023/10/10 02:10:14;;;;;;;21.27;14.00;;;10.70;99.90;;;;;;5224790;28;21041;-50
2023/10/10 02:12:44;;;;;;;19.67;14.27;;;10.80;99.90;;;;;;5222420;28;20484;-51
2023/10/10 02:15:18;;;;;;;34.47;18.40;;;10.80;99.90;;;;;;5223607;28;20458;-50
2023/10/10 02:17:56;;;;;;;20.03;13.40;;;10.80;99.90;;;;;;5223009;28;20202;-50
2023/10/10 02:23:09;;;;;;;24.40;16.33;;;10.70;99.90;;;;;;5224633;28;20587;-51
2023/10/10 02:25:39;;;;;;;21.63;12.97;;;10.70;99.90;;;;;;5225307;28;20213;-50
2023/10/10 02:28:20;;;;;;;25.77;16.07;;;10.70;99.90;;;;;;5222216;28;20465;-51
2023/10/10 02:30:52;;;;;;;21.03;12.57;;;10.70;99.90;;;;;;5223616;28;20659;-50
2023/10/10 02:38:39;;;;;;;18.10;11.73;;;10.80;99.90;;;;;;5224509;28;20659;-51
2023/10/10 02:44:09;;;;;;;21.50;11.40;;;10.80;99.90;;;;;;5223727;28;20841;-51
2023/10/10 02:46:42;;;;;;;15.87;10.10;;;10.80;99.90;;;;;;5224686;28;20461;-50
2023/10/10 02:49:22;;;;;;;18.20;11.73;;;10.80;99.90;;;;;;5218553;28;20511;-50
2023/10/10 02:51:56;;;;;;;20.10;11.70;;;10.80;99.90;;;;;;5224687;28;20429;-50
2023/10/10 02:54:44;;;;;;;22.17;12.97;;;10.80;99.90;;;;;;5189641;28;20594;-50
2023/10/10 02:57:27;;;;;;;19.97;10.10;;;10.80;99.90;;;;;;5223510;28;20437;-50
2023/10/10 03:00:15;;;;;;;17.93;12.70;;;10.80;99.90;;;;;;5223159;28;20935;-50
2023/10/10 03:02:58;;;;;;;20.30;12.13;;;10.80;99.90;;;;;;5221975;28;20429;-50
2023/10/10 03:05:44;;;;;;;17.47;11.43;;;10.90;99.90;;;;;;5223942;28;20437;-50
2023/10/10 03:08:17;;;;;;;19.90;9.17;;;10.90;99.90;;;;;;5222543;28;20473;-50
2023/10/10 03:11:00;;;;;;;20.87;11.20;;;10.90;99.90;;;;;;5218692;28;20475;-51
2023/10/10 03:13:35;;;;;;;13.93;9.43;;;10.90;99.90;;;;;;5220873;28;20460;-50
2023/10/10 03:16:41;;;;;;;24.10;10.60;;;10.90;99.90;;;;;;5225185;28;20463;-50
2023/10/10 03:21:50;;;;;;;19.90;11.20;;;10.90;99.90;;;;;;5223150;28;20570;-50
2023/10/10 03:27:36;;;;;;;16.77;11.40;;;11.00;99.90;;;;;;5225740;28;20477;-50
2023/10/10 03:30:15;;;;;;;20.00;11.50;;;11.10;99.90;;;;;;5213232;28;20807;-49
2023/10/10 03:33:09;;;;;;;20.47;11.93;;;11.00;99.90;;;;;;5226068;28;20422;-50
2023/10/10 05:25:55;;;;;;;38.17;17.50;;;11.50;99.90;;;;;;5232157;28;20829;-49
2023/10/10 05:28:32;;;;;;;50.70;18.93;;;11.50;99.90;;;;;;5221664;28;20464;-49
2023/10/10 05:31:03;;;;;;;43.70;18.67;;;11.50;99.90;;;;;;5224568;28;20791;-49
2023/10/10 05:33:36;;;;;;;36.83;16.73;;;11.60;99.90;;;;;;5226935;28;20453;-49
2023/10/10 05:36:07;;;;;;;50.20;20.93;;;11.60;99.90;;;;;;5207591;28;20171;-50
2023/10/10 05:38:39;;;;;;;39.20;18.70;;;11.60;99.90;;;;;;5230914;28;20516;-49
2023/10/10 05:41:12;;;;;;;65.10;20.53;;;11.60;99.90;;;;;;5227544;28;20183;-50
2023/10/10 05:43:43;;;;;;;46.10;20.47;;;11.70;99.90;;;;;;5226245;28;21019;-49
2023/10/10 05:46:15;;;;;;;49.60;21.77;;;11.70;99.90;;;;;;5222496;28;20444;-49
2023/10/10 05:48:46;;;;;;;43.80;20.53;;;11.70;99.90;;;;;;5223228;28;20465;-49
2023/10/10 05:51:17;;;;;;;50.80;22.87;;;11.80;99.90;;;;;;5224341;28;20769;-49
2023/10/10 05:53:48;;;;;;;37.00;19.80;;;11.80;99.90;;;;;;5228811;28;20194;-49
2023/10/10 05:56:19;;;;;;;53.13;23.10;;;11.90;99.90;;;;;;5228497;28;20249;-49
2023/10/10 05:58:50;;;;;;;37.37;17.60;;;11.90;99.90;;;;;;5226367;28;20445;-50
2023/10/10 06:01:21;;;;;;;42.07;19.43;;;11.90;99.90;;;;;;5225913;28;20201;-50
2023/10/10 06:03:51;;;;;;;46.17;17.10;;;12.00;99.90;;;;;;5226187;28;20237;-50
2023/10/10 06:06:22;;;;;;;56.07;21.43;;;12.10;99.90;;;;;;5228001;28;20183;-51
2023/10/10 06:09:00;;;;;;;60.50;22.83;;;12.10;99.90;;;;;;5222368;28;20571;-50
2023/10/10 06:11:34;;;;;;;57.53;20.80;;;12.10;99.90;;;;;;5227923;28;20937;-49
2023/10/10 06:14:04;;;;;;;47.53;19.60;;;12.20;99.90;;;;;;5219152;28;20980;-49
2023/10/10 06:16:36;;;;;;;28.93;14.47;;;12.20;99.90;;;;;;5223833;28;20425;-50
2023/10/10 06:19:06;;;;;;;25.40;11.90;;;12.30;99.90;;;;;;5229157;28;20577;-51
2023/10/10 06:21:40;;;;;;;28.73;14.10;;;12.30;99.90;;;;;;5221402;28;20480;-50
2023/10/10 06:24:12;;;;;;;38.13;15.20;;;12.40;99.90;;;;;;5222604;28;20222;-50
2023/10/10 06:26:46;;;;;;;29.97;13.93;;;12.40;99.90;;;;;;5228809;28;20769;-49
2023/10/10 06:29:16;;;;;;;34.20;15.17;;;12.50;99.90;;;;;;5227443;28;20846;-50
2023/10/10 06:31:49;;;;;;;19.30;11.30;;;12.60;99.90;;;;;;5224787;28;20494;-50
2023/10/10 06:34:21;;;;;;;19.87;12.70;;;12.80;99.90;;;;;;5227079;28;20268;-50
2023/10/10 06:36:54;;;;;;;52.67;19.40;;;12.90;99.90;;;;;;5220295;28;20514;-51
2023/10/10 06:39:32;;;;;;;19.00;12.30;;;13.50;99.90;;;;;;5225711;28;20409;-51
2023/10/10 06:42:03;;;;;;;25.90;13.00;;;14.30;99.90;;;;;;5220156;28;20433;-50
2023/10/10 06:44:39;;;;;;;34.87;13.40;;;14.40;99.90;;;;;;5219149;28;20876;-51
2023/10/10 06:47:11;;;;;;;14.43;10.23;;;14.30;99.90;;;;;;5223921;28;20465;-51
2023/10/10 06:49:53;;;;;;;23.00;11.70;;;14.10;99.90;;;;;;5222141;28;20771;-50
2023/10/10 06:52:27;;;;;;;10.33;8.40;;;13.90;99.90;;;;;;5222856;28;20917;-50
2023/10/10 06:54:58;;;;;;;8.87;7.57;;;13.90;99.90;;;;;;5216266;28;20495;-52
2023/10/10 06:57:43;;;;;;;13.00;8.57;;;13.80;99.90;;;;;;5208804;28;20460;-51
2023/10/10 07:00:27;;;;;;;20.83;10.57;;;13.90;99.90;;;;;;5203804;28;20241;-50
2023/10/10 07:02:59;;;;;;;12.97;8.37;;;13.90;99.90;;;;;;5210298;28;20448;-52
2023/10/10 07:05:33;;;;;;;12.83;7.47;;;13.90;99.90;;;;;;5218883;28;20995;-50
2023/10/10 07:08:18;;;;;;;11.90;7.17;;;14.00;99.90;;;;;;5220445;28;20547;-49
2023/10/10 07:10:52;;;;;;;10.37;6.77;;;14.00;99.90;;;;;;5217003;28;20440;-50
2023/10/10 07:13:29;;;;;;;14.23;8.43;;;14.00;99.90;;;;;;5224996;28;20543;-51
2023/10/10 07:16:01;;;;;;;7.93;6.87;;;14.00;99.90;;;;;;5226014;28;20526;-51
2023/10/10 07:18:32;;;;;;;9.30;5.90;;;13.90;99.90;;;;;;5224861;28;20429;-50
2023/10/10 07:21:26;;;;;;;5.80;5.37;;;13.90;99.90;;;;;;5219119;28;20430;-49
2023/10/10 07:24:05;;;;;;;7.30;5.87;;;13.90;99.90;;;;;;5232904;28;20201;-50
2023/10/10 07:26:41;;;;;;;5.90;5.37;;;13.90;99.90;;;;;;5225998;28;20482;-51
2023/10/10 07:29:57;;;;;;;12.03;7.27;;;13.90;99.90;;;;;;5221788;28;20491;-49
2023/10/10 07:32:28;;;;;;;10.03;6.50;;;13.90;99.90;;;;;;5223002;28;20448;-49
2023/10/10 07:34:58;;;;;;;8.07;7.10;;;14.00;99.90;;;;;;5225405;28;20453;-51
2023/10/10 07:37:30;;;;;;;8.83;5.93;;;14.00;99.90;;;;;;5226212;28;20512;-49
2023/10/10 07:43:03;;;;;;;8.40;6.70;;;14.10;99.90;;;;;;5225318;28;20430;-50
2023/10/10 07:45:33;;;;;;;13.37;7.57;;;14.10;99.90;;;;;;5224210;28;20877;-52
2023/10/10 07:50:47;;;;;;;7.47;5.53;;;14.20;99.90;;;;;;5225616;28;20224;-50
2023/10/10 07:53:18;;;;;;;14.87;9.67;;;14.20;99.90;;;;;;5223612;28;20506;-52
2023/10/10 07:58:42;;;;;;;9.37;8.10;;;14.20;99.90;;;;;;5222461;28;20205;-51
2023/10/10 08:01:16;;;;;;;8.17;6.43;;;14.40;99.90;;;;;;5224237;28;20903;-50
2023/10/10 08:03:47;;;;;;;17.93;9.50;;;14.50;99.90;;;;;;5228990;28;20453;-50
2023/10/10 08:06:21;;;;;;;10.07;7.87;;;14.50;99.90;;;;;;5219401;28;20437;-51
2023/10/10 08:09:09;;;;;;;7.50;6.90;;;14.50;99.90;;;;;;5224214;28;20210;-50
2023/10/10 08:11:39;;;;;;;22.63;9.23;;;14.60;99.90;;;;;;5220952;28;20494;-50
2023/10/10 08:14:10;;;;;;;15.50;7.20;;;14.70;99.90;;;;;;5224788;28;20453;-50
2023/10/10 08:16:43;;;;;;;7.00;6.40;;;14.80;99.90;;;;;;5226090;28;20218;-50
2023/10/10 08:19:15;;;;;;;10.10;6.50;;;14.90;99.90;;;;;;5227660;28;20421;-50
2023/10/10 08:21:51;;;;;;;11.20;8.30;;;14.90;99.90;;;;;;5221930;28;20532;-52
2023/10/10 08:24:22;;;;;;;7.83;7.07;;;15.00;99.90;;;;;;5226413;28;20531;-50
2023/10/10 08:26:53;;;;;;;7.47;6.77;;;15.00;99.90;;;;;;5220916;28;20586;-51
2023/10/10 08:29:27;;;;;;;11.50;7.47;;;15.20;99.90;;;;;;5222138;28;20182;-51
2023/10/10 08:31:57;;;;;;;7.87;6.50;;;15.40;99.90;;;;;;5219274;28;20249;-50
2023/10/10 08:34:28;;;;;;;9.43;6.83;;;15.50;99.90;;;;;;5229335;28;20527;-49
2023/10/10 08:37:04;;;;;;;6.57;5.97;;;15.70;99.90;;;;;;5224522;28;20186;-51
2023/10/10 08:39:36;;;;;;;11.70;6.83;;;15.70;99.90;;;;;;5234256;28;20217;-50
2023/10/10 08:42:10;;;;;;;8.50;6.43;;;15.70;99.90;;;;;;5226612;28;20441;-49
2023/10/10 08:44:47;;;;;;;7.40;5.07;;;15.80;99.90;;;;;;5228045;28;20456;-51
2023/10/10 08:47:26;;;;;;;15.10;5.50;;;15.80;99.90;;;;;;5228543;28;20483;-52
2023/10/10 08:49:57;;;;;;;6.73;5.37;;;15.80;99.90;;;;;;5227451;28;20456;-51
2023/10/10 08:52:32;;;;;;;5.77;5.00;;;15.80;99.90;;;;;;5224826;28;20429;-51
2023/10/10 08:55:03;;;;;;;5.37;4.83;;;15.80;99.90;;;;;;5226756;28;20437;-50
2023/10/10 08:57:38;;;;;;;8.50;4.83;;;15.70;99.90;;;;;;5224724;28;20437;-53
2023/10/10 09:00:11;;;;;;;4.27;3.93;;;15.60;99.90;;;;;;5224486;28;20853;-53
2023/10/10 09:02:42;;;;;;;4.80;4.13;;;15.60;99.90;;;;;;5223409;28;20449;-52
2023/10/10 09:05:14;;;;;;;5.33;4.40;;;15.50;99.90;;;;;;5224509;28;20477;-50
2023/10/10 09:07:46;;;;;;;7.93;5.00;;;15.50;99.90;;;;;;5228803;28;20671;-50
2023/10/10 09:10:18;;;;;;;4.97;4.47;;;15.30;99.90;;;;;;5227392;28;20574;-51
2023/10/10 09:12:58;;;;;;;4.03;3.83;;;15.40;99.90;;;;;;5228533;28;20439;-52
2023/10/10 09:15:30;;;;;;;3.30;3.00;;;15.40;99.90;;;;;;5227917;28;20424;-50
2023/10/10 09:18:16;;;;;;;6.40;5.03;;;15.50;99.90;;;;;;5227899;28;20437;-50
2023/10/10 09:20:46;;;;;;;9.17;4.37;;;15.40;99.90;;;;;;5227995;28;20472;-51
2023/10/10 09:23:32;;;;;;;4.10;3.87;;;15.30;99.90;;;;;;5221305;28;20920;-50
2023/10/10 09:26:29;;;;;;;4.50;4.20;;;15.50;99.90;;;;;;5221474;28;20189;-51
2023/10/10 09:29:01;;;;;;;6.10;4.03;;;15.60;99.90;;;;;;5222966;28;20543;-51
2023/10/10 09:31:32;;;;;;;3.40;3.20;;;15.70;99.90;;;;;;5216930;28;20516;-51
2023/10/10 09:34:05;;;;;;;4.17;3.90;;;15.70;99.90;;;;;;5220213;28;20528;-51
2023/10/10 09:36:50;;;;;;;4.00;3.70;;;15.60;99.90;;;;;;5224819;28;20179;-51
2023/10/10 09:39:36;;;;;;;6.30;3.50;;;15.60;99.90;;;;;;5222870;28;20442;-50
2023/10/10 09:42:21;;;;;;;3.97;3.70;;;15.80;99.90;;;;;;5223570;28;20858;-51
2023/10/10 09:47:55;;;;;;;4.30;4.00;;;15.90;99.90;;;;;;5223825;28;21035;-51
2023/10/10 09:50:34;;;;;;;3.33;3.03;;;15.80;99.90;;;;;;5220996;28;20453;-51
2023/10/10 09:53:19;;;;;;;4.83;3.60;;;15.70;99.90;;;;;;5213397;28;20464;-50
2023/10/10 09:55:53;;;;;;;2.80;2.60;;;15.70;99.90;;;;;;5210045;28;20437;-51
2023/10/10 09:58:25;;;;;;;3.23;3.10;;;15.80;99.90;;;;;;5219336;28;20445;-52
2023/10/10 10:01:12;;;;;;;10.40;3.10;;;15.90;99.90;;;;;;5219928;28;20783;-50
2023/10/10 10:03:55;;;;;;;6.17;3.67;;;16.10;99.90;;;;;;5230006;28;20457;-51
2023/10/10 10:06:54;;;;;;;4.40;2.60;;;16.30;99.90;;;;;;5222572;28;20842;-51
2023/10/10 10:09:45;;;;;;;3.63;3.43;;;16.30;99.90;;;;;;5226646;28;20429;-52
2023/10/10 10:12:41;;;;;;;3.73;3.27;;;16.40;99.90;;;;;;5220560;28;20433;-51
2023/10/10 10:15:40;;;;;;;12.43;3.70;;;16.50;99.90;;;;;;5221656;28;20975;-51
2023/10/10 10:18:12;;;;;;;5.00;2.17;;;16.70;99.90;;;;;;5222906;28;20465;-52
2023/10/10 10:21:12;;;;;;;1.77;1.67;;;16.70;99.90;;;;;;5224898;28;20438;-52
2023/10/10 10:23:44;;;;;;;2.50;2.30;;;16.50;99.90;;;;;;5222222;28;20457;-50
2023/10/10 10:26:41;;;;;;;3.40;3.20;;;16.40;99.90;;;;;;5222616;28;20449;-51
2023/10/10 10:29:26;;;;;;;4.30;2.80;;;16.10;99.90;;;;;;5221487;28;20441;-51
2023/10/10 10:32:00;;;;;;;3.90;2.90;;;16.20;99.90;;;;;;5220373;28;20432;-52
2023/10/10 10:34:32;;;;;;;4.20;3.97;;;16.20;99.90;;;;;;5223383;28;20488;-51
2023/10/10 10:37:12;;;;;;;10.33;4.90;;;16.40;99.90;;;;;;5224359;28;20425;-51
2023/10/10 10:42:36;;;;;;;2.90;2.70;;;16.40;99.90;;;;;;5223199;28;20907;-51
2023/10/10 10:45:26;;;;;;;2.77;2.57;;;16.60;99.90;;;;;;5222038;28;20469;-51
2023/10/10 10:48:05;;;;;;;3.43;2.20;;;16.80;99.90;;;;;;5235590;28;20472;-50
2023/10/10 10:50:42;;;;;;;2.90;2.13;;;16.90;99.90;;;;;;5235719;28;20437;-51
2023/10/10 10:53:21;;;;;;;3.53;2.83;;;17.10;99.90;;;;;;5221989;28;20543;-51
2023/10/10 11:01:27;;;;;;;10.10;5.93;;;17.10;99.90;;;;;;5215376;28;20529;-51
2023/10/10 11:03:58;;;;;;;4.50;3.93;;;17.10;99.90;;;;;;5225847;28;20464;-50
2023/10/10 11:06:30;;;;;;;3.47;3.27;;;17.10;99.90;;;;;;5203380;28;20810;-52
2023/10/10 11:09:23;;;;;;;4.60;3.43;;;17.30;99.90;;;;;;5219417;28;20218;-52
2023/10/10 11:12:01;;;;;;;14.97;7.00;;;17.50;99.90;;;;;;5214492;28;23641;-51
2023/10/10 11:14:46;;;;;;;3.80;3.50;;;17.70;99.90;;;;;;5221562;28;20581;-53
2023/10/10 11:17:19;;;;;;;6.33;2.03;;;17.70;99.90;;;;;;5214307;28;20437;-52
2023/10/10 11:19:54;;;;;;;4.03;2.53;;;17.70;99.90;;;;;;5222293;28;20444;-52
2023/10/10 11:22:40;;;;;;;3.57;3.23;;;17.70;99.90;;;;;;5225582;28;20435;-52
2023/10/10 11:25:12;;;;;;;11.00;6.73;;;17.80;99.90;;;;;;5223538;28;20461;-52
2023/10/10 11:27:45;;;;;;;4.57;4.17;;;17.80;99.90;;;;;;5225084;28;20508;-52
2023/10/10 11:30:24;;;;;;;3.17;2.83;;;17.80;99.90;;;;;;5218228;28;20874;-51
2023/10/10 11:33:16;;;;;;;3.33;3.03;;;17.70;99.90;;;;;;5206527;28;20524;-52
2023/10/10 11:35:50;;;;;;;2.90;2.63;;;17.60;99.90;;;;;;5217275;28;20429;-52
2023/10/10 11:38:35;;;;;;;4.03;3.43;;;17.60;99.90;;;;;;5223603;28;20472;-52
2023/10/10 11:41:09;;;;;;;2.93;2.67;;;17.70;99.90;;;;;;5219332;28;20463;-51
2023/10/10 11:44:01;;;;;;;15.13;3.30;;;17.60;99.90;;;;;;5223088;28;20799;-52
2023/10/10 11:46:33;;;;;;;3.20;2.90;;;17.40;99.90;;;;;;5232848;28;20502;-52
2023/10/10 11:49:03;;;;;;;3.63;3.33;;;17.30;99.90;;;;;;5220688;28;20945;-52
2023/10/10 11:51:35;;;;;;;4.20;3.73;;;17.10;99.90;;;;;;5237014;28;20565;-53
2023/10/10 11:54:06;;;;;;;5.17;3.10;;;17.00;99.90;;;;;;5219236;28;20619;-52
2023/10/10 11:56:36;;;;;;;2.87;2.67;;;17.00;99.90;;;;;;5223266;28;20512;-52
2023/10/10 11:59:10;;;;;;;4.00;2.70;;;17.00;99.90;;;;;;5222579;28;20187;-52
2023/10/10 12:01:49;;;;;;;3.30;3.00;;;17.20;99.90;;;;;;5217845;28;20796;-52
2023/10/10 12:04:30;;;;;;;3.53;2.90;;;17.60;99.90;;;;;;5235499;28;20467;-52
2023/10/10 12:07:02;;;;;;;2.90;2.73;;;18.00;99.90;;;;;;5216144;28;20444;-52
2023/10/10 12:09:33;;;;;;;11.30;6.00;;;18.20;99.90;;;;;;5216426;28;20561;-52
2023/10/10 12:12:04;;;;;;;11.00;3.83;;;18.40;99.90;;;;;;5224108;28;20432;-52
2023/10/10 12:14:34;;;;;;;3.07;2.87;;;18.40;99.90;;;;;;5214360;28;20464;-52
2023/10/10 12:17:05;;;;;;;4.53;2.83;;;18.60;99.90;;;;;;5229566;28;20194;-52
2023/10/10 12:19:36;;;;;;;1.93;1.87;;;18.70;99.90;;;;;;5227441;28;20214;-53
2023/10/10 12:22:15;;;;;;;2.60;2.40;;;18.70;99.90;;;;;;5227858;28;20429;-53
2023/10/10 12:24:47;;;;;;;1.80;1.70;;;18.50;99.90;;;;;;5228485;28;20206;-53
2023/10/10 12:27:17;;;;;;;2.30;2.10;;;18.60;99.90;;;;;;5228786;28;20461;-53
2023/10/10 12:29:48;;;;;;;4.00;1.93;;;18.50;99.90;;;;;;5224392;28;20448;-50
2023/10/10 12:32:22;;;;;;;4.07;2.20;;;18.50;99.90;;;;;;5224679;28;20194;-52
2023/10/10 12:34:52;;;;;;;2.33;2.23;;;18.60;99.90;;;;;;5236346;28;20222;-52
2023/10/10 12:37:23;;;;;;;3.03;1.93;;;18.70;99.90;;;;;;5231751;28;20433;-52
2023/10/10 12:39:54;;;;;;;2.33;1.83;;;18.70;99.90;;;;;;5229681;28;20183;-52
2023/10/10 12:42:25;;;;;;;2.20;2.10;;;18.60;99.90;;;;;;5228705;28;20209;-52
2023/10/10 12:44:55;;;;;;;4.23;1.97;;;18.60;99.90;;;;;;5227601;28;20237;-53
2023/10/10 12:47:27;;;;;;;2.73;2.30;;;18.60;99.90;;;;;;5231813;28;20242;-53
2023/10/10 12:50:04;;;;;;;23.63;3.10;;;18.50;99.90;;;;;;5229230;28;20284;-53
2023/10/10 12:52:35;;;;;;;2.10;2.00;;;18.40;99.90;;;;;;5227084;28;20418;-53
2023/10/10 12:55:09;;;;;;;3.50;2.43;;;18.30;99.90;;;;;;5227263;28;20450;-53
2023/10/10 12:57:40;;;;;;;2.60;2.33;;;18.20;99.90;;;;;;5226215;28;20471;-55
2023/10/10 13:00:23;;;;;;;6.43;2.70;;;18.10;99.90;;;;;;5226548;28;20544;-51
2023/10/10 13:02:54;;;;;;;2.80;2.17;;;18.00;99.90;;;;;;5230745;28;20201;-53
2023/10/10 13:05:27;;;;;;;3.70;1.87;;;18.00;99.90;;;;;;5229947;28;20810;-53
2023/10/10 13:07:59;;;;;;;1.47;1.47;;;18.00;99.90;;;;;;5228282;28;20211;-59
2023/10/10 13:10:32;;;;;;;2.73;2.50;;;18.00;99.90;;;;;;5229814;28;20460;-52
2023/10/10 13:13:10;;;;;;;2.97;1.53;;;18.00;99.90;;;;;;5223391;28;20436;-51
2023/10/10 13:15:47;;;;;;;2.13;1.87;;;17.90;99.90;;;;;;5226081;28;20475;-53
2023/10/10 13:18:22;;;;;;;1.00;1.00;;;17.90;99.90;;;;;;5225181;28;20473;-52
2023/10/10 13:20:53;;;;;;;2.30;1.90;;;18.00;99.90;;;;;;5229008;28;20758;-52
2023/10/10 13:23:24;;;;;;;7.03;3.37;;;18.10;99.90;;;;;;5223755;28;20906;-52
2023/10/10 13:25:55;;;;;;;1.83;1.73;;;18.20;99.90;;;;;;5231015;28;20547;-53
2023/10/10 13:28:25;;;;;;;3.90;1.73;;;18.20;99.90;;;;;;5226265;28;20226;-51
2023/10/10 13:30:57;;;;;;;3.03;2.50;;;18.30;99.90;;;;;;5220911;28;20617;-51
2023/10/10 13:33:28;;;;;;;1.63;1.53;;;18.40;99.90;;;;;;5224524;28;20227;-51
2023/10/10 13:35:59;;;;;;;2.60;2.50;;;18.50;99.90;;;;;;5227862;28;20468;-51
2023/10/10 13:38:29;;;;;;;4.17;3.10;;;18.60;99.90;;;;;;5226262;28;20654;-51
2023/10/10 13:41:03;;;;;;;2.43;2.23;;;18.50;99.90;;;;;;5231560;28;20689;-50
2023/10/10 13:43:33;;;;;;;3.27;2.20;;;18.60;99.90;;;;;;5223112;28;20249;-53
2023/10/10 13:46:05;;;;;;;2.37;2.17;;;18.60;99.90;;;;;;5227269;28;20521;-51
2023/10/10 13:48:36;;;;;;;6.93;2.40;;;18.70;99.90;;;;;;5227869;28;20276;-49
2023/10/10 13:51:07;;;;;;;2.20;2.10;;;18.80;99.90;;;;;;5223439;28;20850;-52
2023/10/10 13:53:39;;;;;;;1.83;1.77;;;18.70;99.90;;;;;;5226208;28;20233;-51
2023/10/10 13:56:11;;;;;;;2.40;2.30;;;18.60;99.90;;;;;;5224596;28;20442;-51
2023/10/10 13:58:47;;;;;;;1.83;1.73;;;18.50;99.90;;;;;;5226114;28;20422;-52
2023/10/10 14:04:15;;;;;;;2.10;1.70;;;18.30;99.90;;;;;;5225216;28;20502;-51
2023/10/10 14:06:47;;;;;;;4.33;2.13;;;18.20;99.90;;;;;;5224867;28;20433;-52
2023/10/10 14:09:31;;;;;;;2.30;2.20;;;18.10;99.90;;;;;;5226280;28;20909;-50
2023/10/10 14:12:03;;;;;;;2.63;2.50;;;18.00;99.90;;;;;;5224236;28;20480;-52
2023/10/10 14:14:33;;;;;;;3.53;2.30;;;17.90;99.90;;;;;;5230080;28;20994;-51
2023/10/10 14:17:04;;;;;;;2.20;2.20;;;17.90;99.90;;;;;;5225149;28;20438;-51
2023/10/10 14:19:35;;;;;;;2.67;2.47;;;17.80;99.90;;;;;;5224025;28;20531;-51
2023/10/10 14:22:10;;;;;;;3.87;2.43;;;17.80;99.90;;;;;;5223783;28;20184;-52
2023/10/10 14:24:41;;;;;;;5.23;2.20;;;17.90;99.90;;;;;;5215361;28;20202;-52
2023/10/10 14:27:12;;;;;;;7.17;2.77;;;17.90;99.90;;;;;;5214969;28;20836;-51
2023/10/10 14:29:43;;;;;;;2.13;2.03;;;17.90;99.90;;;;;;5208024;28;20437;-52
2023/10/10 14:32:14;;;;;;;3.50;2.50;;;17.90;99.90;;;;;;5210413;28;20193;-52
2023/10/10 14:34:45;;;;;;;4.47;4.07;;;17.80;99.90;;;;;;5217623;28;20569;-51
2023/10/10 14:37:16;;;;;;;3.97;3.67;;;17.80;99.90;;;;;;5225113;28;20429;-51
2023/10/10 14:39:51;;;;;;;3.30;2.60;;;17.80;99.90;;;;;;5213660;28;20445;-52
2023/10/10 14:42:22;;;;;;;3.83;2.63;;;17.70;99.90;;;;;;5218075;28;20225;-51
2023/10/10 14:44:53;;;;;;;2.53;2.43;;;17.70;99.90;;;;;;5213956;28;20493;-50
2023/10/10 14:47:24;;;;;;;7.53;2.43;;;17.70;99.90;;;;;;5217345;28;20198;-53
2023/10/10 14:50:06;;;;;;;2.23;2.13;;;17.70;99.90;;;;;;5218360;28;20491;-53
2023/10/10 14:52:40;;;;;;;3.53;2.47;;;17.60;99.90;;;;;;5226211;28;20221;-51
2023/10/10 14:55:23;;;;;;;3.70;2.20;;;17.60;99.90;;;;;;5218747;28;20545;-53
2023/10/10 14:57:55;;;;;;;3.23;2.77;;;17.50;99.90;;;;;;5221260;28;20511;-51
2023/10/10 15:00:28;;;;;;;8.93;3.70;;;17.50;99.90;;;;;;5224835;28;20803;-53
2023/10/10 15:02:58;;;;;;;3.67;2.37;;;17.50;99.90;;;;;;5223489;28;20469;-52
2023/10/10 15:05:32;;;;;;;2.50;2.30;;;17.40;99.90;;;;;;5216430;28;20465;-52
2023/10/10 15:08:04;;;;;;;2.63;2.43;;;17.30;99.90;;;;;;5215708;28;20217;-52
2023/10/10 15:10:40;;;;;;;3.80;2.87;;;17.30;99.90;;;;;;5220880;28;20503;-51
2023/10/10 15:13:14;;;;;;;6.13;2.53;;;17.20;99.90;;;;;;5217069;28;20456;-51
2023/10/10 15:15:46;;;;;;;7.07;2.87;;;17.10;99.90;;;;;;5213317;28;21244;-52
2023/10/10 15:18:18;;;;;;;3.50;2.23;;;17.10;99.90;;;;;;5217389;28;20430;-51
2023/10/10 15:20:48;;;;;;;3.10;1.80;;;17.10;99.90;;;;;;5220682;28;20437;-52
2023/10/10 15:23:20;;;;;;;4.20;2.30;;;17.10;99.90;;;;;;5218940;28;20572;-52
2023/10/10 15:26:05;;;;;;;3.10;2.40;;;17.00;99.90;;;;;;5228670;28;20258;-51
2023/10/10 15:28:35;;;;;;;3.27;2.70;;;17.00;99.90;;;;;;5222352;28;20469;-51
2023/10/10 15:31:07;;;;;;;7.37;3.60;;;17.10;99.90;;;;;;5219596;28;20434;-51
2023/10/10 15:33:43;;;;;;;4.63;3.60;;;17.10;99.90;;;;;;5215721;28;20203;-52
2023/10/10 15:36:16;;;;;;;3.23;2.90;;;17.00;99.90;;;;;;5220146;28;20433;-50
2023/10/10 15:38:47;;;;;;;2.47;2.27;;;16.90;99.90;;;;;;5220883;28;20802;-51
2023/10/10 15:41:19;;;;;;;2.70;2.50;;;16.70;99.90;;;;;;5217481;28;20484;-51
2023/10/10 15:43:52;;;;;;;5.07;2.40;;;16.90;99.90;;;;;;5224573;28;20744;-51
2023/10/10 15:46:25;;;;;;;2.70;2.60;;;16.80;99.90;;;;;;5222406;28;20925;-51
2023/10/10 15:48:57;;;;;;;1.93;1.83;;;16.80;99.90;;;;;;5225346;28;20461;-52
2023/10/10 15:51:35;;;;;;;3.53;3.13;;;16.90;99.90;;;;;;5225575;28;20438;-51
2023/10/10 15:54:09;;;;;;;2.50;2.40;;;16.80;99.90;;;;;;5225975;28;20453;-50